createdAt,value
2019-01-08T00:00:38.675Z,40.23
2019-01-08T00:03:07.313Z,43.53
2019-01-08T00:05:36.006Z,38.30
2019-01-08T00:08:04.736Z,37.70
2019-01-08T00:10:45.354Z,34.27
2019-01-08T00:13:13.913Z,32.17
2019-01-08T00:15:42.634Z,34.43
2019-01-08T00:18:11.303Z,39.13
2019-01-08T00:20:39.915Z,38.20
2019-01-08T00:23:08.452Z,40.77
2019-01-08T00:29:15.230Z,39.57
2019-01-08T00:31:43.797Z,45.03
2019-01-08T00:34:12.411Z,46.17
2019-01-08T00:36:40.971Z,54.50
2019-01-08T00:39:09.581Z,44.13
2019-01-08T00:41:38.128Z,49.80
2019-01-08T00:44:06.813Z,36.93
2019-01-08T00:46:35.372Z,29.80
2019-01-08T00:49:04.048Z,32.77
2019-01-08T00:51:32.615Z,31.83
2019-01-08T00:54:01.308Z,33.60
2019-01-08T00:56:29.943Z,33.30
2019-01-08T00:58:58.529Z,34.87
2019-01-08T01:01:27.173Z,29.60
2019-01-08T01:03:55.661Z,27.07
2019-01-08T01:06:24.346Z,33.97
2019-01-08T01:08:52.848Z,34.60
2019-01-08T01:11:21.547Z,29.90
2019-01-08T01:13:50.146Z,28.20
2019-01-08T01:16:18.702Z,29.87
2019-01-08T01:18:47.310Z,30.03
2019-01-08T01:21:35.324Z,31.50
2019-01-08T01:24:04.005Z,30.33
2019-01-08T01:26:32.567Z,37.20
2019-01-08T01:29:01.251Z,29.60
2019-01-08T01:31:49.159Z,30.00
2019-01-08T01:34:17.762Z,29.80
2019-01-08T01:36:46.333Z,29.40
2019-01-08T01:39:14.912Z,28.10
2019-01-08T01:41:43.456Z,28.90
2019-01-08T01:44:12.052Z,31.47
2019-01-08T01:47:19.128Z,28.07
2019-01-08T01:50:08.466Z,28.43
2019-01-08T01:53:15.551Z,37.60
2019-01-08T01:56:22.725Z,34.73
2019-01-08T02:12:25.380Z,45.37
2019-01-08T02:31:58.483Z,45.37
2019-01-08T02:34:47.791Z,39.77
2019-01-08T02:37:54.973Z,46.23
2019-01-08T02:40:23.453Z,35.67
2019-01-08T02:43:11.153Z,35.90
2019-01-08T02:45:53.616Z,30.43
2019-01-08T02:48:41.421Z,38.87
